sensor_id;sensor_type;location;lat;lon;timestamp;P1;durP1;ratioP1;P2;durP2;ratioP2
62610;SDS011;48683;48.084;17.272;2023-03-14T00:02:05;6.82;;;4.32;;
62610;SDS011;48683;48.084;17.272;2023-03-14T00:04:30;7.38;;;4.18;;
62610;SDS011;48683;48.084;17.272;2023-03-14T00:06:56;8.07;;;4.90;;
62610;SDS011;48683;48.084;17.272;2023-03-14T00:09:21;7.13;;;4.90;;
62610;SDS011;48683;48.084;17.272;2023-03-14T00:11:47;7.47;;;4.40;;
62610;SDS011;48683;48.084;17.272;2023-03-14T00:14:12;5.38;;;4.10;;
62610;SDS011;48683;48.084;17.272;2023-03-14T00:16:38;7.53;;;4.68;;
62610;SDS011;48683;48.084;17.272;2023-03-14T00:19:03;9.15;;;4.97;;
62610;SDS011;48683;48.084;17.272;2023-03-14T00:21:28;6.63;;;4.60;;
62610;SDS011;48683;48.084;17.272;2023-03-14T00:23:54;7.68;;;4.97;;
62610;SDS011;48683;48.084;17.272;2023-03-14T00:26:20;6.78;;;4.72;;
62610;SDS011;48683;48.084;17.272;2023-03-14T00:28:47;8.25;;;5.13;;
62610;SDS011;48683;48.084;17.272;2023-03-14T00:31:15;9.70;;;4.78;;
62610;SDS011;48683;48.084;17.272;2023-03-14T00:33:41;9.38;;;4.78;;
62610;SDS011;48683;48.084;17.272;2023-03-14T00:36:09;5.90;;;4.30;;
62610;SDS011;48683;48.084;17.272;2023-03-14T00:38:37;7.45;;;5.00;;
62610;SDS011;48683;48.084;17.272;2023-03-14T00:41:05;9.70;;;5.30;;
62610;SDS011;48683;48.084;17.272;2023-03-14T00:43:31;6.55;;;4.57;;
62610;SDS011;48683;48.084;17.272;2023-03-14T00:45:57;7.13;;;4.55;;
62610;SDS011;48683;48.084;17.272;2023-03-14T00:48:22;7.25;;;4.50;;
62610;SDS011;48683;48.084;17.272;2023-03-14T00:50:48;9.15;;;4.65;;
62610;SDS011;48683;48.084;17.272;2023-03-14T00:53:14;8.32;;;4.30;;
62610;SDS011;48683;48.084;17.272;2023-03-14T00:55:40;5.95;;;4.68;;
62610;SDS011;48683;48.084;17.272;2023-03-14T00:58:07;7.30;;;4.30;;
62610;SDS011;48683;48.084;17.272;2023-03-14T01:00:33;5.80;;;3.67;;
62610;SDS011;48683;48.084;17.272;2023-03-14T01:02:58;8.23;;;3.95;;
62610;SDS011;48683;48.084;17.272;2023-03-14T01:05:24;6.05;;;4.63;;
62610;SDS011;48683;48.084;17.272;2023-03-14T01:07:49;7.60;;;3.90;;
62610;SDS011;48683;48.084;17.272;2023-03-14T01:10:15;7.68;;;4.40;;
62610;SDS011;48683;48.084;17.272;2023-03-14T01:12:41;9.75;;;4.30;;
62610;SDS011;48683;48.084;17.272;2023-03-14T01:15:06;6.22;;;4.05;;
62610;SDS011;48683;48.084;17.272;2023-03-14T01:17:32;9.80;;;4.50;;
62610;SDS011;48683;48.084;17.272;2023-03-14T01:19:58;7.93;;;4.22;;
62610;SDS011;48683;48.084;17.272;2023-03-14T01:22:24;6.10;;;3.80;;
62610;SDS011;48683;48.084;17.272;2023-03-14T01:24:49;6.68;;;3.75;;
62610;SDS011;48683;48.084;17.272;2023-03-14T01:27:15;5.18;;;3.97;;
62610;SDS011;48683;48.084;17.272;2023-03-14T01:29:40;5.70;;;3.60;;
62610;SDS011;48683;48.084;17.272;2023-03-14T01:32:05;6.60;;;3.83;;
62610;SDS011;48683;48.084;17.272;2023-03-14T01:34:31;7.85;;;3.58;;
62610;SDS011;48683;48.084;17.272;2023-03-14T01:36:56;6.50;;;3.65;;
62610;SDS011;48683;48.084;17.272;2023-03-14T01:39:21;7.57;;;3.60;;
62610;SDS011;48683;48.084;17.272;2023-03-14T01:41:47;9.63;;;3.90;;
62610;SDS011;48683;48.084;17.272;2023-03-14T01:44:12;6.63;;;3.42;;
62610;SDS011;48683;48.084;17.272;2023-03-14T01:46:39;6.78;;;3.25;;
62610;SDS011;48683;48.084;17.272;2023-03-14T01:54:25;5.85;;;3.45;;
62610;SDS011;48683;48.084;17.272;2023-03-14T01:57:07;6.82;;;3.15;;
62610;SDS011;48683;48.084;17.272;2023-03-14T01:59:36;6.10;;;3.00;;
62610;SDS011;48683;48.084;17.272;2023-03-14T02:02:04;6.63;;;3.33;;
62610;SDS011;48683;48.084;17.272;2023-03-14T02:04:32;5.03;;;2.95;;
62610;SDS011;48683;48.084;17.272;2023-03-14T02:07:05;5.72;;;3.10;;
62610;SDS011;48683;48.084;17.272;2023-03-14T02:09:35;5.82;;;3.08;;
62610;SDS011;48683;48.084;17.272;2023-03-14T02:12:02;7.32;;;3.13;;
62610;SDS011;48683;48.084;17.272;2023-03-14T02:14:29;5.45;;;2.42;;
62610;SDS011;48683;48.084;17.272;2023-03-14T02:17:00;5.05;;;2.15;;
62610;SDS011;48683;48.084;17.272;2023-03-14T02:19:49;5.03;;;2.05;;
62610;SDS011;48683;48.084;17.272;2023-03-14T02:22:22;4.55;;;2.15;;
62610;SDS011;48683;48.084;17.272;2023-03-14T02:27:14;3.22;;;1.95;;
62610;SDS011;48683;48.084;17.272;2023-03-14T02:29:44;4.05;;;1.95;;
62610;SDS011;48683;48.084;17.272;2023-03-14T02:32:14;8.57;;;2.42;;
62610;SDS011;48683;48.084;17.272;2023-03-14T02:34:41;8.02;;;1.85;;
62610;SDS011;48683;48.084;17.272;2023-03-14T02:37:07;5.90;;;2.35;;
62610;SDS011;48683;48.084;17.272;2023-03-14T02:39:38;4.20;;;2.10;;
62610;SDS011;48683;48.084;17.272;2023-03-14T02:42:07;3.58;;;1.98;;
62610;SDS011;48683;48.084;17.272;2023-03-14T02:44:33;5.30;;;1.95;;
62610;SDS011;48683;48.084;17.272;2023-03-14T02:47:00;3.92;;;2.10;;
62610;SDS011;48683;48.084;17.272;2023-03-14T02:49:26;4.82;;;1.83;;
62610;SDS011;48683;48.084;17.272;2023-03-14T02:51:55;6.13;;;1.92;;
62610;SDS011;48683;48.084;17.272;2023-03-14T02:54:20;6.53;;;2.28;;
62610;SDS011;48683;48.084;17.272;2023-03-14T02:56:46;4.40;;;1.98;;
62610;SDS011;48683;48.084;17.272;2023-03-14T02:59:11;9.77;;;2.25;;
62610;SDS011;48683;48.084;17.272;2023-03-14T03:01:36;5.35;;;2.10;;
62610;SDS011;48683;48.084;17.272;2023-03-14T03:04:02;3.20;;;1.88;;
62610;SDS011;48683;48.084;17.272;2023-03-14T03:06:28;3.55;;;1.88;;
62610;SDS011;48683;48.084;17.272;2023-03-14T03:08:53;3.10;;;1.80;;
62610;SDS011;48683;48.084;17.272;2023-03-14T03:11:18;4.82;;;1.85;;
62610;SDS011;48683;48.084;17.272;2023-03-14T03:13:44;4.53;;;1.90;;
62610;SDS011;48683;48.084;17.272;2023-03-14T03:16:09;3.90;;;1.77;;
62610;SDS011;48683;48.084;17.272;2023-03-14T03:18:35;6.53;;;2.88;;
62610;SDS011;48683;48.084;17.272;2023-03-14T03:21:01;2.90;;;1.88;;
62610;SDS011;48683;48.084;17.272;2023-03-14T03:23:28;4.20;;;2.33;;
62610;SDS011;48683;48.084;17.272;2023-03-14T03:25:53;5.18;;;2.13;;
62610;SDS011;48683;48.084;17.272;2023-03-14T03:28:19;4.30;;;2.10;;
62610;SDS011;48683;48.084;17.272;2023-03-14T03:30:45;5.55;;;2.40;;
62610;SDS011;48683;48.084;17.272;2023-03-14T03:33:11;4.88;;;2.58;;
62610;SDS011;48683;48.084;17.272;2023-03-14T03:35:47;7.87;;;2.53;;
62610;SDS011;48683;48.084;17.272;2023-03-14T03:38:14;6.82;;;3.08;;
62610;SDS011;48683;48.084;17.272;2023-03-14T03:40:39;4.47;;;2.13;;
62610;SDS011;48683;48.084;17.272;2023-03-14T03:43:05;7.95;;;2.65;;
62610;SDS011;48683;48.084;17.272;2023-03-14T03:45:30;10.80;;;2.92;;
62610;SDS011;48683;48.084;17.272;2023-03-14T03:47:56;4.20;;;2.97;;
62610;SDS011;48683;48.084;17.272;2023-03-14T03:50:21;9.65;;;7.03;;
62610;SDS011;48683;48.084;17.272;2023-03-14T03:52:46;17.15;;;14.82;;
62610;SDS011;48683;48.084;17.272;2023-03-14T03:55:12;20.85;;;16.60;;
62610;SDS011;48683;48.084;17.272;2023-03-14T03:57:37;23.02;;;16.45;;
62610;SDS011;48683;48.084;17.272;2023-03-14T04:00:03;11.07;;;7.28;;
62610;SDS011;48683;48.084;17.272;2023-03-14T04:02:30;11.40;;;6.18;;
62610;SDS011;48683;48.084;17.272;2023-03-14T04:04:55;6.85;;;5.10;;
62610;SDS011;48683;48.084;17.272;2023-03-14T04:07:21;7.13;;;4.50;;
62610;SDS011;48683;48.084;17.272;2023-03-14T04:09:46;8.70;;;3.75;;
62610;SDS011;48683;48.084;17.272;2023-03-14T04:12:11;6.72;;;3.88;;
62610;SDS011;48683;48.084;17.272;2023-03-14T04:14:37;9.52;;;4.32;;
62610;SDS011;48683;48.084;17.272;2023-03-14T04:17:02;7.28;;;4.03;;
62610;SDS011;48683;48.084;17.272;2023-03-14T04:19:28;8.73;;;4.28;;
62610;SDS011;48683;48.084;17.272;2023-03-14T04:21:53;7.10;;;4.28;;
62610;SDS011;48683;48.084;17.272;2023-03-14T04:24:18;8.35;;;4.88;;
62610;SDS011;48683;48.084;17.272;2023-03-14T04:26:44;7.93;;;4.43;;
62610;SDS011;48683;48.084;17.272;2023-03-14T04:29:09;7.28;;;4.55;;
62610;SDS011;48683;48.084;17.272;2023-03-14T04:31:35;7.25;;;4.93;;
62610;SDS011;48683;48.084;17.272;2023-03-14T04:34:00;9.02;;;5.13;;
62610;SDS011;48683;48.084;17.272;2023-03-14T04:36:25;6.88;;;4.47;;
62610;SDS011;48683;48.084;17.272;2023-03-14T04:38:51;6.03;;;4.68;;
62610;SDS011;48683;48.084;17.272;2023-03-14T04:41:16;8.63;;;5.47;;
62610;SDS011;48683;48.084;17.272;2023-03-14T04:43:41;7.68;;;5.13;;
62610;SDS011;48683;48.084;17.272;2023-03-14T04:46:07;6.80;;;4.53;;
62610;SDS011;48683;48.084;17.272;2023-03-14T04:48:32;8.13;;;4.82;;
62610;SDS011;48683;48.084;17.272;2023-03-14T04:50:57;8.90;;;5.15;;
62610;SDS011;48683;48.084;17.272;2023-03-14T04:53:23;6.40;;;4.82;;
62610;SDS011;48683;48.084;17.272;2023-03-14T04:55:49;8.15;;;4.88;;
62610;SDS011;48683;48.084;17.272;2023-03-14T04:58:15;7.43;;;4.47;;
62610;SDS011;48683;48.084;17.272;2023-03-14T05:00:40;6.35;;;4.80;;
62610;SDS011;48683;48.084;17.272;2023-03-14T05:03:06;8.85;;;4.28;;
62610;SDS011;48683;48.084;17.272;2023-03-14T05:05:31;7.47;;;4.60;;
62610;SDS011;48683;48.084;17.272;2023-03-14T05:07:57;7.00;;;4.75;;
62610;SDS011;48683;48.084;17.272;2023-03-14T05:10:22;6.57;;;4.50;;
62610;SDS011;48683;48.084;17.272;2023-03-14T05:12:47;9.65;;;4.80;;
62610;SDS011;48683;48.084;17.272;2023-03-14T05:15:13;11.00;;;5.20;;
62610;SDS011;48683;48.084;17.272;2023-03-14T05:17:38;8.48;;;4.57;;
62610;SDS011;48683;48.084;17.272;2023-03-14T05:20:04;7.00;;;4.38;;
62610;SDS011;48683;48.084;17.272;2023-03-14T05:22:33;6.57;;;4.43;;
62610;SDS011;48683;48.084;17.272;2023-03-14T05:24:59;7.25;;;4.65;;
62610;SDS011;48683;48.084;17.272;2023-03-14T05:27:24;9.48;;;4.90;;
62610;SDS011;48683;48.084;17.272;2023-03-14T05:29:50;8.57;;;4.88;;
62610;SDS011;48683;48.084;17.272;2023-03-14T05:32:15;8.55;;;4.93;;
62610;SDS011;48683;48.084;17.272;2023-03-14T05:34:40;10.02;;;5.07;;
62610;SDS011;48683;48.084;17.272;2023-03-14T05:37:06;6.93;;;5.38;;
62610;SDS011;48683;48.084;17.272;2023-03-14T05:39:32;9.23;;;5.20;;
62610;SDS011;48683;48.084;17.272;2023-03-14T05:41:57;8.90;;;5.20;;
62610;SDS011;48683;48.084;17.272;2023-03-14T05:44:22;10.20;;;5.55;;
62610;SDS011;48683;48.084;17.272;2023-03-14T05:46:48;9.60;;;6.03;;
62610;SDS011;48683;48.084;17.272;2023-03-14T05:49:13;9.65;;;6.60;;
62610;SDS011;48683;48.084;17.272;2023-03-14T05:51:38;7.85;;;5.68;;
62610;SDS011;48683;48.084;17.272;2023-03-14T05:54:04;10.38;;;6.30;;
62610;SDS011;48683;48.084;17.272;2023-03-14T05:56:29;9.88;;;6.00;;
62610;SDS011;48683;48.084;17.272;2023-03-14T05:58:55;11.38;;;6.00;;
62610;SDS011;48683;48.084;17.272;2023-03-14T06:01:20;8.10;;;5.65;;
62610;SDS011;48683;48.084;17.272;2023-03-14T06:03:45;7.90;;;5.60;;
62610;SDS011;48683;48.084;17.272;2023-03-14T06:06:11;11.50;;;5.68;;
62610;SDS011;48683;48.084;17.272;2023-03-14T06:08:36;10.85;;;6.75;;
62610;SDS011;48683;48.084;17.272;2023-03-14T06:11:02;8.20;;;5.95;;
62610;SDS011;48683;48.084;17.272;2023-03-14T06:13:28;7.82;;;5.90;;
62610;SDS011;48683;48.084;17.272;2023-03-14T06:15:54;7.97;;;5.57;;
62610;SDS011;48683;48.084;17.272;2023-03-14T06:18:19;10.18;;;5.55;;
62610;SDS011;48683;48.084;17.272;2023-03-14T06:20:45;10.82;;;6.45;;
62610;SDS011;48683;48.084;17.272;2023-03-14T06:23:10;10.57;;;6.03;;
62610;SDS011;48683;48.084;17.272;2023-03-14T06:25:36;10.57;;;5.97;;
62610;SDS011;48683;48.084;17.272;2023-03-14T06:28:02;8.63;;;5.80;;
62610;SDS011;48683;48.084;17.272;2023-03-14T06:30:27;8.20;;;5.63;;
62610;SDS011;48683;48.084;17.272;2023-03-14T06:32:52;8.52;;;5.85;;
62610;SDS011;48683;48.084;17.272;2023-03-14T06:35:18;7.60;;;5.10;;
62610;SDS011;48683;48.084;17.272;2023-03-14T06:37:44;9.40;;;5.70;;
62610;SDS011;48683;48.084;17.272;2023-03-14T06:40:10;14.43;;;5.70;;
62610;SDS011;48683;48.084;17.272;2023-03-14T06:42:37;12.00;;;5.20;;
62610;SDS011;48683;48.084;17.272;2023-03-14T06:45:03;13.82;;;6.50;;
62610;SDS011;48683;48.084;17.272;2023-03-14T06:47:28;10.18;;;5.63;;
62610;SDS011;48683;48.084;17.272;2023-03-14T06:49:54;9.15;;;5.53;;
62610;SDS011;48683;48.084;17.272;2023-03-14T06:52:19;8.57;;;5.25;;
62610;SDS011;48683;48.084;17.272;2023-03-14T06:54:44;20.13;;;9.50;;
62610;SDS011;48683;48.084;17.272;2023-03-14T06:57:10;20.27;;;9.05;;
62610;SDS011;48683;48.084;17.272;2023-03-14T06:59:35;14.48;;;7.90;;
62610;SDS011;48683;48.084;17.272;2023-03-14T07:02:00;14.95;;;7.47;;
62610;SDS011;48683;48.084;17.272;2023-03-14T07:04:26;12.95;;;7.43;;
62610;SDS011;48683;48.084;17.272;2023-03-14T07:06:51;15.05;;;7.32;;
62610;SDS011;48683;48.084;17.272;2023-03-14T07:09:16;18.85;;;8.50;;
62610;SDS011;48683;48.084;17.272;2023-03-14T07:11:42;18.77;;;9.25;;
62610;SDS011;48683;48.084;17.272;2023-03-14T07:14:07;16.83;;;7.03;;
62610;SDS011;48683;48.084;17.272;2023-03-14T07:16:33;11.00;;;7.00;;
62610;SDS011;48683;48.084;17.272;2023-03-14T07:18:59;10.82;;;7.55;;
62610;SDS011;48683;48.084;17.272;2023-03-14T07:21:25;10.05;;;7.38;;
62610;SDS011;48683;48.084;17.272;2023-03-14T07:23:51;10.35;;;6.63;;
62610;SDS011;48683;48.084;17.272;2023-03-14T07:26:16;11.40;;;6.10;;
62610;SDS011;48683;48.084;17.272;2023-03-14T07:28:41;12.32;;;6.00;;
62610;SDS011;48683;48.084;17.272;2023-03-14T07:31:07;15.90;;;6.20;;
62610;SDS011;48683;48.084;17.272;2023-03-14T07:33:32;11.75;;;6.03;;
62610;SDS011;48683;48.084;17.272;2023-03-14T07:35:58;22.58;;;10.18;;
62610;SDS011;48683;48.084;17.272;2023-03-14T07:38:24;19.92;;;8.77;;
62610;SDS011;48683;48.084;17.272;2023-03-14T07:40:49;13.88;;;7.95;;
62610;SDS011;48683;48.084;17.272;2023-03-14T07:43:15;9.52;;;5.45;;
62610;SDS011;48683;48.084;17.272;2023-03-14T07:45:40;9.85;;;6.05;;
62610;SDS011;48683;48.084;17.272;2023-03-14T07:48:06;8.63;;;5.93;;
62610;SDS011;48683;48.084;17.272;2023-03-14T07:50:31;10.75;;;5.50;;
62610;SDS011;48683;48.084;17.272;2023-03-14T07:52:56;9.90;;;5.45;;
62610;SDS011;48683;48.084;17.272;2023-03-14T07:55:22;13.95;;;6.10;;
62610;SDS011;48683;48.084;17.272;2023-03-14T07:57:47;8.48;;;6.00;;
62610;SDS011;48683;48.084;17.272;2023-03-14T08:00:12;14.77;;;8.35;;
62610;SDS011;48683;48.084;17.272;2023-03-14T08:02:39;14.93;;;7.63;;
62610;SDS011;48683;48.084;17.272;2023-03-14T08:05:05;11.80;;;6.93;;
62610;SDS011;48683;48.084;17.272;2023-03-14T08:07:31;17.25;;;6.97;;
62610;SDS011;48683;48.084;17.272;2023-03-14T08:09:57;7.40;;;5.63;;
62610;SDS011;48683;48.084;17.272;2023-03-14T08:12:22;12.35;;;5.15;;
62610;SDS011;48683;48.084;17.272;2023-03-14T08:14:47;14.48;;;5.43;;
62610;SDS011;48683;48.084;17.272;2023-03-14T08:17:13;8.27;;;4.43;;
62610;SDS011;48683;48.084;17.272;2023-03-14T08:19:38;10.02;;;5.13;;
62610;SDS011;48683;48.084;17.272;2023-03-14T08:24:30;14.50;;;5.40;;
62610;SDS011;48683;48.084;17.272;2023-03-14T08:26:56;12.93;;;4.72;;
62610;SDS011;48683;48.084;17.272;2023-03-14T08:29:21;10.43;;;4.80;;
62610;SDS011;48683;48.084;17.272;2023-03-14T08:31:46;9.18;;;4.90;;
62610;SDS011;48683;48.084;17.272;2023-03-14T08:34:13;7.28;;;5.28;;
62610;SDS011;48683;48.084;17.272;2023-03-14T08:36:39;10.88;;;5.03;;
62610;SDS011;48683;48.084;17.272;2023-03-14T08:39:04;10.00;;;4.95;;
62610;SDS011;48683;48.084;17.272;2023-03-14T08:41:32;6.80;;;4.13;;
62610;SDS011;48683;48.084;17.272;2023-03-14T08:43:58;13.98;;;4.60;;
62610;SDS011;48683;48.084;17.272;2023-03-14T08:46:23;5.97;;;4.18;;
62610;SDS011;48683;48.084;17.272;2023-03-14T08:48:49;8.20;;;4.10;;
62610;SDS011;48683;48.084;17.272;2023-03-14T08:51:14;6.80;;;3.72;;
62610;SDS011;48683;48.084;17.272;2023-03-14T08:53:40;7.20;;;4.05;;
62610;SDS011;48683;48.084;17.272;2023-03-14T08:56:06;7.67;;;4.40;;
62610;SDS011;48683;48.084;17.272;2023-03-14T08:58:34;6.63;;;4.35;;
62610;SDS011;48683;48.084;17.272;2023-03-14T09:01:02;7.93;;;4.20;;
62610;SDS011;48683;48.084;17.272;2023-03-14T09:03:27;5.50;;;3.70;;
62610;SDS011;48683;48.084;17.272;2023-03-14T09:05:53;7.70;;;4.35;;
62610;SDS011;48683;48.084;17.272;2023-03-14T09:08:19;9.15;;;4.07;;
62610;SDS011;48683;48.084;17.272;2023-03-14T09:10:44;7.85;;;3.95;;
62610;SDS011;48683;48.084;17.272;2023-03-14T09:13:09;6.95;;;4.22;;
62610;SDS011;48683;48.084;17.272;2023-03-14T09:15:35;6.55;;;4.00;;
62610;SDS011;48683;48.084;17.272;2023-03-14T09:18:00;7.97;;;4.25;;
62610;SDS011;48683;48.084;17.272;2023-03-14T09:20:26;10.30;;;4.40;;
62610;SDS011;48683;48.084;17.272;2023-03-14T09:22:51;8.02;;;3.45;;
62610;SDS011;48683;48.084;17.272;2023-03-14T09:25:17;6.65;;;3.78;;
62610;SDS011;48683;48.084;17.272;2023-03-14T09:27:42;8.50;;;3.55;;
62610;SDS011;48683;48.084;17.272;2023-03-14T09:30:08;7.90;;;3.53;;
62610;SDS011;48683;48.084;17.272;2023-03-14T09:32:35;7.25;;;3.35;;
62610;SDS011;48683;48.084;17.272;2023-03-14T09:35:00;4.70;;;3.22;;
62610;SDS011;48683;48.084;17.272;2023-03-14T09:37:26;6.53;;;3.97;;
62610;SDS011;48683;48.084;17.272;2023-03-14T09:39:51;7.95;;;3.10;;
62610;SDS011;48683;48.084;17.272;2023-03-14T09:42:17;7.25;;;3.40;;
62610;SDS011;48683;48.084;17.272;2023-03-14T09:45:03;6.43;;;3.20;;
62610;SDS011;48683;48.084;17.272;2023-03-14T09:47:32;11.02;;;3.55;;
62610;SDS011;48683;48.084;17.272;2023-03-14T09:49:59;5.25;;;2.83;;
62610;SDS011;48683;48.084;17.272;2023-03-14T09:54:55;7.68;;;2.75;;
62610;SDS011;48683;48.084;17.272;2023-03-14T09:57:23;5.35;;;2.80;;
62610;SDS011;48683;48.084;17.272;2023-03-14T09:59:50;4.95;;;2.40;;
62610;SDS011;48683;48.084;17.272;2023-03-14T10:02:22;4.95;;;2.42;;
62610;SDS011;48683;48.084;17.272;2023-03-14T10:04:50;6.70;;;2.50;;
62610;SDS011;48683;48.084;17.272;2023-03-14T10:07:19;7.97;;;2.60;;
62610;SDS011;48683;48.084;17.272;2023-03-14T10:09:50;6.68;;;2.65;;
62610;SDS011;48683;48.084;17.272;2023-03-14T10:12:17;6.40;;;2.83;;
62610;SDS011;48683;48.084;17.272;2023-03-14T10:14:47;4.72;;;2.72;;
62610;SDS011;48683;48.084;17.272;2023-03-14T10:17:17;4.55;;;2.38;;
62610;SDS011;48683;48.084;17.272;2023-03-14T10:19:50;6.47;;;2.40;;
62610;SDS011;48683;48.084;17.272;2023-03-14T10:22:16;4.40;;;2.00;;
62610;SDS011;48683;48.084;17.272;2023-03-14T10:24:45;5.87;;;2.00;;
62610;SDS011;48683;48.084;17.272;2023-03-14T10:27:23;4.28;;;1.90;;
62610;SDS011;48683;48.084;17.272;2023-03-14T10:29:54;4.85;;;1.98;;
62610;SDS011;48683;48.084;17.272;2023-03-14T10:32:40;6.13;;;2.10;;
62610;SDS011;48683;48.084;17.272;2023-03-14T10:40:38;5.68;;;2.05;;
62610;SDS011;48683;48.084;17.272;2023-03-14T10:43:06;4.85;;;1.70;;
62610;SDS011;48683;48.084;17.272;2023-03-14T10:45:38;7.68;;;1.58;;
62610;SDS011;48683;48.084;17.272;2023-03-14T10:53:48;9.45;;;2.20;;
62610;SDS011;48683;48.084;17.272;2023-03-14T10:56:35;6.70;;;1.80;;
62610;SDS011;48683;48.084;17.272;2023-03-14T10:59:02;4.70;;;1.80;;
62610;SDS011;48683;48.084;17.272;2023-03-14T11:20:42;3.92;;;1.90;;
62610;SDS011;48683;48.084;17.272;2023-03-14T11:23:18;6.85;;;1.92;;
62610;SDS011;48683;48.084;17.272;2023-03-14T11:26:08;7.60;;;1.95;;
62610;SDS011;48683;48.084;17.272;2023-03-14T11:28:50;4.47;;;1.75;;
62610;SDS011;48683;48.084;17.272;2023-03-14T11:31:29;4.30;;;2.10;;
62610;SDS011;48683;48.084;17.272;2023-03-14T11:36:51;11.10;;;6.18;;
62610;SDS011;48683;48.084;17.272;2023-03-14T11:39:20;9.10;;;6.25;;
62610;SDS011;48683;48.084;17.272;2023-03-14T11:41:49;11.10;;;6.57;;
62610;SDS011;48683;48.084;17.272;2023-03-14T11:44:18;11.40;;;6.13;;
62610;SDS011;48683;48.084;17.272;2023-03-14T11:57:51;12.48;;;6.70;;
62610;SDS011;48683;48.084;17.272;2023-03-14T12:00:19;13.70;;;6.90;;
62610;SDS011;48683;48.084;17.272;2023-03-14T12:03:10;19.08;;;7.47;;
62610;SDS011;48683;48.084;17.272;2023-03-14T12:06:08;14.75;;;7.50;;
62610;SDS011;48683;48.084;17.272;2023-03-14T12:08:50;15.38;;;6.88;;
62610;SDS011;48683;48.084;17.272;2023-03-14T12:13:48;13.13;;;7.18;;
62610;SDS011;48683;48.084;17.272;2023-03-14T12:22:08;10.85;;;6.57;;
62610;SDS011;48683;48.084;17.272;2023-03-14T12:25:02;15.30;;;7.50;;
62610;SDS011;48683;48.084;17.272;2023-03-14T12:27:41;12.85;;;7.00;;
62610;SDS011;48683;48.084;17.272;2023-03-14T12:35:41;16.45;;;7.88;;
62610;SDS011;48683;48.084;17.272;2023-03-14T12:43:34;13.27;;;7.03;;
62610;SDS011;48683;48.084;17.272;2023-03-14T12:51:34;9.40;;;5.50;;
62610;SDS011;48683;48.084;17.272;2023-03-14T13:02:00;4.95;;;2.60;;
62610;SDS011;48683;48.084;17.272;2023-03-14T13:04:33;2.90;;;2.10;;
62610;SDS011;48683;48.084;17.272;2023-03-14T13:07:01;6.10;;;2.50;;
62610;SDS011;48683;48.084;17.272;2023-03-14T13:12:13;6.10;;;2.20;;
62610;SDS011;48683;48.084;17.272;2023-03-14T13:14:41;4.13;;;2.10;;
62610;SDS011;48683;48.084;17.272;2023-03-14T13:17:13;3.55;;;1.70;;
62610;SDS011;48683;48.084;17.272;2023-03-14T13:19:39;2.53;;;1.77;;
62610;SDS011;48683;48.084;17.272;2023-03-14T13:22:23;5.45;;;1.80;;
62610;SDS011;48683;48.084;17.272;2023-03-14T13:24:50;2.55;;;1.52;;
62610;SDS011;48683;48.084;17.272;2023-03-14T13:27:22;5.57;;;1.80;;
62610;SDS011;48683;48.084;17.272;2023-03-14T13:29:49;2.78;;;1.75;;
62610;SDS011;48683;48.084;17.272;2023-03-14T13:32:48;4.22;;;1.65;;
62610;SDS011;48683;48.084;17.272;2023-03-14T13:35:16;1.70;;;1.50;;
62610;SDS011;48683;48.084;17.272;2023-03-14T13:37:57;2.83;;;1.35;;
62610;SDS011;48683;48.084;17.272;2023-03-14T13:40:26;2.25;;;1.33;;
62610;SDS011;48683;48.084;17.272;2023-03-14T13:43:01;2.75;;;1.40;;
62610;SDS011;48683;48.084;17.272;2023-03-14T13:45:29;1.60;;;1.17;;
62610;SDS011;48683;48.084;17.272;2023-03-14T13:47:54;1.83;;;1.40;;
62610;SDS011;48683;48.084;17.272;2023-03-14T13:50:20;1.42;;;1.00;;
62610;SDS011;48683;48.084;17.272;2023-03-14T13:52:45;3.00;;;1.40;;
62610;SDS011;48683;48.084;17.272;2023-03-14T13:55:15;4.20;;;1.50;;
62610;SDS011;48683;48.084;17.272;2023-03-14T13:57:46;1.38;;;0.98;;
62610;SDS011;48683;48.084;17.272;2023-03-14T14:00:28;2.00;;;1.10;;
62610;SDS011;48683;48.084;17.272;2023-03-14T14:02:55;2.55;;;1.35;;
62610;SDS011;48683;48.084;17.272;2023-03-14T14:05:22;1.25;;;0.90;;
62610;SDS011;48683;48.084;17.272;2023-03-14T14:07:50;1.02;;;0.80;;
62610;SDS011;48683;48.084;17.272;2023-03-14T14:10:17;2.95;;;1.00;;
62610;SDS011;48683;48.084;17.272;2023-03-14T14:15:21;0.88;;;0.73;;
62610;SDS011;48683;48.084;17.272;2023-03-14T14:17:52;2.35;;;1.10;;
62610;SDS011;48683;48.084;17.272;2023-03-14T14:22:59;2.65;;;1.33;;
62610;SDS011;48683;48.084;17.272;2023-03-14T14:25:28;2.40;;;1.45;;
62610;SDS011;48683;48.084;17.272;2023-03-14T14:27:54;2.67;;;1.00;;
62610;SDS011;48683;48.084;17.272;2023-03-14T14:32:45;1.58;;;1.10;;
62610;SDS011;48683;48.084;17.272;2023-03-14T14:35:25;3.22;;;0.90;;
62610;SDS011;48683;48.084;17.272;2023-03-14T14:37:51;2.70;;;1.02;;
62610;SDS011;48683;48.084;17.272;2023-03-14T14:40:19;3.40;;;1.17;;
62610;SDS011;48683;48.084;17.272;2023-03-14T14:42:54;2.33;;;0.93;;
62610;SDS011;48683;48.084;17.272;2023-03-14T14:45:27;4.22;;;1.10;;
62610;SDS011;48683;48.084;17.272;2023-03-14T14:47:53;1.80;;;0.90;;
62610;SDS011;48683;48.084;17.272;2023-03-14T14:50:26;2.38;;;0.88;;
62610;SDS011;48683;48.084;17.272;2023-03-14T14:52:58;1.90;;;1.08;;
62610;SDS011;48683;48.084;17.272;2023-03-14T14:55:28;2.35;;;1.35;;
62610;SDS011;48683;48.084;17.272;2023-03-14T14:57:57;2.17;;;0.93;;
62610;SDS011;48683;48.084;17.272;2023-03-14T15:00:35;3.45;;;1.20;;
62610;SDS011;48683;48.084;17.272;2023-03-14T15:03:10;4.15;;;0.90;;
62610;SDS011;48683;48.084;17.272;2023-03-14T15:05:39;2.63;;;1.00;;
62610;SDS011;48683;48.084;17.272;2023-03-14T15:08:09;1.92;;;1.15;;
62610;SDS011;48683;48.084;17.272;2023-03-14T15:10:36;1.73;;;1.30;;
62610;SDS011;48683;48.084;17.272;2023-03-14T15:13:01;2.92;;;1.20;;
62610;SDS011;48683;48.084;17.272;2023-03-14T15:15:27;1.85;;;1.30;;
62610;SDS011;48683;48.084;17.272;2023-03-14T15:17:52;4.28;;;1.55;;
62610;SDS011;48683;48.084;17.272;2023-03-14T15:20:17;5.72;;;1.67;;
62610;SDS011;48683;48.084;17.272;2023-03-14T15:22:44;2.88;;;1.95;;
62610;SDS011;48683;48.084;17.272;2023-03-14T15:25:11;5.20;;;4.00;;
62610;SDS011;48683;48.084;17.272;2023-03-14T15:27:37;4.13;;;3.63;;
62610;SDS011;48683;48.084;17.272;2023-03-14T15:30:14;5.90;;;4.30;;
62610;SDS011;48683;48.084;17.272;2023-03-14T15:32:40;5.70;;;4.43;;
62610;SDS011;48683;48.084;17.272;2023-03-14T15:35:06;6.90;;;5.00;;
62610;SDS011;48683;48.084;17.272;2023-03-14T15:37:32;4.77;;;4.37;;
62610;SDS011;48683;48.084;17.272;2023-03-14T15:39:57;5.90;;;4.03;;
62610;SDS011;48683;48.084;17.272;2023-03-14T15:42:23;5.05;;;3.67;;
62610;SDS011;48683;48.084;17.272;2023-03-14T15:44:49;5.30;;;3.58;;
62610;SDS011;48683;48.084;17.272;2023-03-14T15:47:14;3.80;;;3.40;;
62610;SDS011;48683;48.084;17.272;2023-03-14T15:49:39;5.28;;;4.18;;
62610;SDS011;48683;48.084;17.272;2023-03-14T15:52:05;5.50;;;3.47;;
62610;SDS011;48683;48.084;17.272;2023-03-14T15:56:57;5.53;;;4.03;;
62610;SDS011;48683;48.084;17.272;2023-03-14T15:59:23;5.35;;;4.07;;
62610;SDS011;48683;48.084;17.272;2023-03-14T16:01:49;5.00;;;4.47;;
62610;SDS011;48683;48.084;17.272;2023-03-14T16:04:15;6.82;;;4.55;;
62610;SDS011;48683;48.084;17.272;2023-03-14T16:06:41;4.15;;;2.80;;
62610;SDS011;48683;48.084;17.272;2023-03-14T16:09:08;2.83;;;2.60;;
62610;SDS011;48683;48.084;17.272;2023-03-14T16:11:34;3.38;;;1.80;;
62610;SDS011;48683;48.084;17.272;2023-03-14T16:13:59;7.93;;;2.42;;
62610;SDS011;48683;48.084;17.272;2023-03-14T16:16:25;5.18;;;2.10;;